Time;durP1;ratioP1;P1;durP2;ratioP2;P2;SDS_P1;SDS_P2;PMS_P1;PMS_P2;Temp;Humidity;BMP_temperature;BMP_pressure;BME280_temperature;BME280_humidity;BME280_pressure;Samples;Min_cycle;Max_cycle;Signal;HPM_P1;HPM_P2
2023/01/14 00:01:09;;;;;;;11.15;2.60;;;;;;;3.49;100.00;96194.22;5102543;28;24998;-73
2023/01/14 00:03:36;;;;;;;10.63;2.45;;;;;;;3.39;100.00;96199.56;5100395;28;24439;-72
2023/01/14 00:06:03;;;;;;;7.45;2.42;;;;;;;3.48;100.00;96189.94;5089551;28;24998;-73
2023/01/14 00:08:31;;;;;;;6.57;2.33;;;;;;;3.49;100.00;96192.50;5100976;28;24504;-73
2023/01/14 00:11:02;;;;;;;14.30;3.08;;;;;;;3.38;100.00;96191.94;5103621;28;24432;-72
2023/01/14 00:13:28;;;;;;;11.73;3.88;;;;;;;3.19;100.00;96194.19;5102194;27;24446;-72
2023/01/14 00:15:57;;;;;;;7.90;2.90;;;;;;;3.12;100.00;96185.81;5103235;28;24434;-73
2023/01/14 00:18:25;;;;;;;7.43;2.30;;;;;;;2.95;100.00;96189.69;5104563;27;24449;-73
2023/01/14 00:20:59;;;;;;;9.15;2.38;;;;;;;2.88;100.00;96181.34;5101803;28;24445;-73
2023/01/14 00:23:27;;;;;;;7.63;2.65;;;;;;;2.78;100.00;96187.56;5101271;28;24445;-73
2023/01/14 00:25:54;;;;;;;7.97;3.72;;;;;;;2.70;100.00;96185.19;5086143;28;24462;-73
2023/01/14 00:28:20;;;;;;;7.93;3.40;;;;;;;2.67;100.00;96186.13;5106181;27;24437;-72
2023/01/14 00:30:46;;;;;;;10.75;2.88;;;;;;;2.54;100.00;96187.31;5093858;28;24441;-73
2023/01/14 00:33:13;;;;;;;7.22;2.88;;;;;;;2.54;100.00;96187.31;5096739;28;24469;-73
2023/01/14 00:35:41;;;;;;;9.65;4.22;;;;;;;2.58;100.00;96182.97;5097200;28;24444;-73
2023/01/14 00:38:07;;;;;;;8.23;3.20;;;;;;;2.55;100.00;96183.03;5085659;28;24492;-73
2023/01/14 00:40:34;;;;;;;6.47;2.47;;;;;;;2.52;100.00;96177.97;5100165;28;24468;-73
2023/01/14 00:43:00;;;;;;;12.93;3.23;;;;;;;2.43;100.00;96173.94;5099960;28;24430;-72
2023/01/14 00:45:27;;;;;;;5.43;2.13;;;;;;;2.46;100.00;96181.56;5080889;28;24449;-73
2023/01/14 00:47:53;;;;;;;8.18;2.58;;;;;;;2.47;100.00;96182.38;5100927;28;24430;-73
2023/01/14 00:50:20;;;;;;;11.85;2.00;;;;;;;2.56;100.00;96184.69;5095780;28;25027;-73
2023/01/14 00:52:48;;;;;;;6.25;2.15;;;;;;;2.40;100.00;96194.47;5090409;28;24496;-73
2023/01/14 00:55:14;;;;;;;6.78;2.40;;;;;;;2.38;100.00;96193.69;5099857;28;24437;-73
2023/01/14 00:57:40;;;;;;;3.55;1.77;;;;;;;2.39;100.00;96191.06;5096894;28;24434;-73
2023/01/14 01:00:09;;;;;;;6.90;2.33;;;;;;;2.40;100.00;96189.34;5099920;28;24440;-73
2023/01/14 01:02:35;;;;;;;8.35;2.67;;;;;;;2.35;100.00;96197.13;5094179;28;24435;-73
2023/01/14 01:05:02;;;;;;;8.35;2.65;;;;;;;2.30;100.00;96185.34;5091254;28;24449;-73
2023/01/14 01:07:28;;;;;;;10.00;2.65;;;;;;;2.33;100.00;96187.81;5092673;28;24445;-73
2023/01/14 01:09:56;;;;;;;7.75;2.00;;;;;;;2.32;100.00;96193.81;5096340;28;24430;-72
2023/01/14 01:12:22;;;;;;;8.38;2.50;;;;;;;2.33;100.00;96195.50;5085947;28;24442;-73
2023/01/14 01:14:49;;;;;;;7.65;2.50;;;;;;;2.32;100.00;96191.25;5098580;28;24435;-73
2023/01/14 01:17:15;;;;;;;7.57;2.13;;;;;;;2.31;100.00;96190.44;5102863;28;24818;-73
2023/01/14 01:19:41;;;;;;;7.85;2.15;;;;;;;2.36;100.00;96188.59;5097217;28;24800;-73
2023/01/14 01:22:08;;;;;;;9.52;2.05;;;;;;;2.41;100.00;96199.56;5096381;28;24532;-73
2023/01/14 01:24:34;;;;;;;7.13;1.95;;;;;;;2.50;100.00;96200.22;5085108;28;24441;-73
2023/01/14 01:27:02;;;;;;;4.57;1.73;;;;;;;2.48;100.00;96201.94;5095510;28;24468;-72
2023/01/14 01:29:29;;;;;;;6.45;2.10;;;;;;;2.52;100.00;96199.31;5092984;28;24476;-73
2023/01/14 01:31:55;;;;;;;14.25;3.38;;;;;;;2.60;100.00;96196.56;5101527;28;24434;-73
2023/01/14 01:34:22;;;;;;;6.50;2.92;;;;;;;2.69;100.00;96201.44;5092528;28;24437;-72
2023/01/14 01:36:48;;;;;;;11.77;3.95;;;;;;;2.64;100.00;96208.38;5100146;28;24438;-73
2023/01/14 01:39:15;;;;;;;8.40;2.70;;;;;;;2.70;100.00;96208.22;5091776;28;24440;-72
2023/01/14 01:41:41;;;;;;;7.38;2.17;;;;;;;2.77;100.00;96201.25;5089999;28;24804;-73
2023/01/14 01:44:47;;;;;;;7.82;1.88;;;;;;;2.78;100.00;96215.69;5098667;27;24434;-73
2023/01/14 01:47:14;;;;;;;8.18;2.28;;;;;;;2.73;100.00;96209.88;5088457;28;24460;-73
2023/01/14 01:49:41;;;;;;;6.10;1.90;;;;;;;2.75;100.00;96210.69;5094904;28;24426;-73
2023/01/14 01:52:13;;;;;;;4.63;1.70;;;;;;;2.80;100.00;96206.28;5102751;28;24441;-72
2023/01/14 01:54:44;;;;;;;6.30;1.65;;;;;;;2.77;100.00;96208.91;5095408;28;24437;-73
2023/01/14 01:57:13;;;;;;;11.23;2.10;;;;;;;2.81;100.00;96205.41;5093527;28;24437;-73
2023/01/14 01:59:45;;;;;;;7.85;2.20;;;;;;;2.88;100.00;96209.47;5088727;28;24433;-73
2023/01/14 02:02:12;;;;;;;5.75;1.85;;;;;;;2.94;100.00;96211.06;5098119;28;24433;-73
2023/01/14 02:04:39;;;;;;;8.80;1.90;;;;;;;2.88;100.00;96217.16;5090823;28;24460;-72
2023/01/14 02:07:15;;;;;;;14.48;1.92;;;;;;;2.96;100.00;96212.66;5099771;28;24445;-73
2023/01/14 02:09:42;;;;;;;5.80;1.98;;;;;;;3.01;100.00;96213.41;5096039;28;24511;-73
2023/01/14 02:12:30;;;;;;;3.88;1.40;;;;;;;2.94;100.00;96209.34;5099535;28;24464;-73
2023/01/14 02:15:13;;;;;;;6.90;2.00;;;;;;;2.91;100.00;96199.16;5082502;28;24438;-73
2023/01/14 02:17:50;;;;;;;8.77;2.05;;;;;;;2.98;100.00;96198.13;5093902;28;24434;-74
2023/01/14 02:20:22;;;;;;;7.78;1.90;;;;;;;3.02;100.00;96199.72;5093783;28;24440;-74
2023/01/14 02:23:15;;;;;;;9.00;2.20;;;;;;;3.06;100.00;96200.50;5098253;28;24502;-74
2023/01/14 02:26:03;;;;;;;6.95;1.63;;;;;;;3.02;100.00;96201.44;5089437;28;24457;-74
2023/01/14 02:28:41;;;;;;;8.73;2.05;;;;;;;3.07;100.00;96202.16;5078739;28;24442;-74
2023/01/14 02:31:13;;;;;;;6.32;2.47;;;;;;;3.01;100.00;96217.69;5085673;28;24962;-74
2023/01/14 02:33:45;;;;;;;5.93;1.58;;;;;;;3.01;100.00;96215.13;5091514;28;24434;-74
2023/01/14 02:36:22;;;;;;;6.72;1.85;;;;;;;3.05;100.00;96225.25;5085865;28;24532;-74
2023/01/14 02:38:54;;;;;;;10.60;2.35;;;;;;;3.07;100.00;96228.59;5086947;28;24433;-74
2023/01/14 02:44:06;;;;;;;12.23;2.35;;;;;;;2.87;100.00;96221.44;5083417;28;24445;-72
2023/01/14 02:44:16;;;;;;;7.30;2.50;;;;;;;2.78;100.00;96216.56;5104666;28;24501;-74
2023/01/14 02:46:48;;;;;;;10.37;2.43;;;;;;;2.75;100.00;96200.44;5080073;28;24446;-72
2023/01/14 02:49:19;;;;;;;8.82;2.33;;;;;;;2.73;100.00;96207.31;5087191;28;24489;-74
2023/01/14 02:51:48;;;;;;;5.70;1.90;;;;;;;2.67;100.00;96203.22;5095430;28;24792;-74
2023/01/14 02:54:16;;;;;;;8.23;2.20;;;;;;;2.60;100.00;96204.22;5093995;28;24795;-74
2023/01/14 02:56:43;;;;;;;9.17;2.17;;;;;;;2.57;100.00;96202.56;5084420;28;24587;-74
2023/01/14 02:59:23;;;;;;;6.38;1.73;;;;;;;2.54;100.00;96194.97;5103849;28;24437;-74
2023/01/14 03:02:12;;;;;;;9.98;2.20;;;;;;;2.54;100.00;96197.53;5097009;28;24437;-74
2023/01/14 03:04:50;;;;;;;9.43;2.17;;;;;;;2.37;100.00;96207.31;5093252;28;24438;-74
2023/01/14 03:07:22;;;;;;;12.65;2.30;;;;;;;2.20;100.00;96209.44;5097472;28;24535;-74
2023/01/14 03:10:00;;;;;;;6.38;1.80;;;;;;;2.23;100.00;96197.44;5097247;28;24831;-74
2023/01/14 03:12:36;;;;;;;5.72;1.92;;;;;;;2.23;100.00;96194.03;5095286;28;24441;-74
2023/01/14 03:15:10;;;;;;;8.85;1.90;;;;;;;2.27;100.00;96198.22;5094143;28;24430;-74
2023/01/14 03:17:43;;;;;;;6.20;1.73;;;;;;;2.30;100.00;96193.00;5086673;28;24434;-74
2023/01/14 03:20:17;;;;;;;9.82;2.38;;;;;;;2.28;100.00;96184.53;5096151;28;24800;-72
2023/01/14 03:22:45;;;;;;;8.60;1.90;;;;;;;2.35;100.00;96178.41;5090792;28;24546;-72
2023/01/14 03:25:16;;;;;;;8.57;2.00;;;;;;;2.38;100.00;96170.69;5084512;28;24441;-74
2023/01/14 03:27:46;;;;;;;8.05;1.92;;;;;;;2.47;100.00;96165.31;5090430;28;24471;-74
2023/01/14 03:30:18;;;;;;;9.40;2.08;;;;;;;2.47;100.00;96155.09;5100952;28;24998;-74
2023/01/14 03:32:50;;;;;;;6.97;1.97;;;;;;;2.40;100.00;96149.28;5100492;28;24445;-74
2023/01/14 03:35:21;;;;;;;7.57;2.30;;;;;;;2.42;100.00;96152.66;5095900;28;24849;-74
2023/01/14 03:37:52;;;;;;;8.15;2.10;;;;;;;2.51;100.00;96141.34;5090915;28;24800;-74
2023/01/14 03:40:22;;;;;;;10.88;2.15;;;;;;;2.42;100.00;96144.16;5097968;28;24437;-73
2023/01/14 03:42:54;;;;;;;7.03;2.30;;;;;;;2.42;100.00;96146.72;5101306;28;24469;-73
2023/01/14 03:45:24;;;;;;;10.27;2.03;;;;;;;2.40;100.00;96145.91;5090562;27;24421;-74
2023/01/14 03:47:51;;;;;;;4.38;1.88;;;;;;;2.45;100.00;96143.22;5098548;28;24454;-74
2023/01/14 03:50:20;;;;;;;5.40;1.63;;;;;;;2.43;100.00;96151.78;5101895;28;24442;-73
2023/01/14 03:52:57;;;;;;;10.30;2.00;;;;;;;2.38;100.00;96147.66;5097498;28;24449;-74
2023/01/14 03:55:29;;;;;;;5.68;1.90;;;;;;;2.29;100.00;96150.44;5095866;27;24429;-74
2023/01/14 03:58:02;;;;;;;8.38;1.90;;;;;;;2.20;100.00;96143.84;5102962;28;24426;-74
2023/01/14 04:00:34;;;;;;;8.93;1.77;;;;;;;2.18;100.00;96138.75;5099323;28;24440;-73
2023/01/14 04:03:05;;;;;;;5.90;1.77;;;;;;;2.21;100.00;96130.19;5098847;28;24796;-73
2023/01/14 04:05:32;;;;;;;6.82;1.65;;;;;;;2.14;100.00;96133.75;5094030;28;24444;-74
2023/01/14 04:08:01;;;;;;;9.82;2.20;;;;;;;2.09;100.00;96120.25;5103666;28;24478;-74
2023/01/14 04:10:27;;;;;;;8.88;1.83;;;;;;;2.08;100.00;96116.03;5099890;28;24444;-74
2023/01/14 04:15:38;;;;;;;7.95;2.10;;;;;;;2.06;100.00;96099.88;5090543;28;24417;-72
2023/01/14 04:18:06;;;;;;;5.57;1.98;;;;;;;2.04;100.00;96106.75;5102627;28;24438;-74
2023/01/14 04:20:32;;;;;;;5.15;1.35;;;;;;;2.02;100.00;96108.50;5099469;28;24429;-75
2023/01/14 04:22:59;;;;;;;8.32;1.90;;;;;;;2.03;100.00;96103.34;5098820;28;24452;-74
2023/01/14 04:25:25;;;;;;;4.93;1.73;;;;;;;1.98;100.00;96101.78;5091847;28;24437;-74
2023/01/14 04:27:52;;;;;;;6.57;1.67;;;;;;;2.03;100.00;96111.00;5100538;28;24812;-74
2023/01/14 04:30:18;;;;;;;11.18;1.85;;;;;;;2.02;100.00;96121.28;5092180;28;24807;-74
2023/01/14 04:32:44;;;;;;;6.28;1.85;;;;;;;1.96;100.00;96119.69;5100524;28;24437;-74
2023/01/14 04:35:12;;;;;;;3.83;1.50;;;;;;;2.01;100.00;96111.94;5093078;27;24437;-74
2023/01/14 04:37:39;;;;;;;3.97;1.50;;;;;;;2.09;100.00;96107.50;5095734;28;24453;-74
2023/01/14 04:40:06;;;;;;;6.00;1.60;;;;;;;2.11;100.00;96108.28;5096749;28;24441;-74
2023/01/14 04:42:32;;;;;;;7.93;1.60;;;;;;;2.17;100.00;96106.41;5100003;28;24979;-74
2023/01/14 04:45:00;;;;;;;5.65;1.73;;;;;;;2.06;100.00;96102.44;5089954;28;24830;-74
2023/01/14 04:47:28;;;;;;;8.38;1.75;;;;;;;2.06;100.00;96098.16;5092965;27;24458;-74
2023/01/14 04:49:55;;;;;;;4.95;1.48;;;;;;;1.99;100.00;96088.97;5099280;28;25014;-74
2023/01/14 04:52:24;;;;;;;5.63;1.70;;;;;;;1.96;100.00;96086.47;5099107;27;24439;-74
2023/01/14 04:54:51;;;;;;;4.57;1.48;;;;;;;1.98;100.00;96081.34;5090208;28;24467;-73
2023/01/14 04:57:18;;;;;;;3.80;1.50;;;;;;;1.93;100.00;96079.75;5099962;27;24979;-75
2023/01/14 04:59:44;;;;;;;5.28;1.73;;;;;;;1.94;100.00;96076.31;5099081;28;24445;-74
2023/01/14 05:02:11;;;;;;;4.65;1.42;;;;;;;1.86;100.00;96077.38;5097143;28;24436;-73
2023/01/14 05:04:37;;;;;;;4.45;1.48;;;;;;;1.86;100.00;96082.50;5096529;28;24437;-74
2023/01/14 05:07:04;;;;;;;5.60;2.17;;;;;;;1.84;100.00;96084.22;5093108;28;24461;-74
2023/01/14 05:09:31;;;;;;;4.45;1.45;;;;;;;1.90;100.00;96081.53;5101682;28;24487;-74
2023/01/14 05:11:58;;;;;;;6.05;1.55;;;;;;;1.97;100.00;96083.06;5099098;28;24446;-74
2023/01/14 05:14:24;;;;;;;4.18;1.40;;;;;;;2.00;100.00;96082.16;5097180;28;24437;-74
2023/01/14 05:16:51;;;;;;;2.45;1.27;;;;;;;2.07;100.00;96083.69;5097188;28;24434;-73
2023/01/14 05:19:17;;;;;;;6.35;1.70;;;;;;;2.10;100.00;96083.59;5096116;28;24532;-74
2023/01/14 05:21:44;;;;;;;3.03;1.17;;;;;;;2.10;100.00;96076.78;5101930;28;24444;-74
2023/01/14 05:24:10;;;;;;;4.47;1.48;;;;;;;2.13;100.00;96086.09;5102517;28;24460;-74
2023/01/14 05:26:38;;;;;;;4.35;1.60;;;;;;;2.11;100.00;96077.63;5089183;28;24450;-74
2023/01/14 05:29:05;;;;;;;4.10;1.60;;;;;;;2.11;100.00;96082.72;5098368;28;24437;-74
2023/01/14 05:31:31;;;;;;;3.78;1.65;;;;;;;2.12;100.00;96079.31;5102847;27;24437;-74
2023/01/14 05:33:59;;;;;;;4.68;1.45;;;;;;;2.14;100.00;96072.44;5097608;28;24442;-73
2023/01/14 05:36:26;;;;;;;5.32;1.95;;;;;;;2.14;100.00;96075.81;5097790;28;24440;-73
2023/01/14 05:38:53;;;;;;;4.17;1.67;;;;;;;2.07;100.00;96064.06;5090007;28;24434;-74
2023/01/14 05:41:19;;;;;;;4.07;1.30;;;;;;;2.07;100.00;96058.13;5099472;28;24437;-74
2023/01/14 05:46:31;;;;;;;5.72;1.73;;;;;;;1.91;100.00;96057.66;5100267;28;24452;-74
2023/01/14 05:48:58;;;;;;;5.72;1.42;;;;;;;1.81;100.00;96051.94;5089880;28;24437;-74
2023/01/14 05:51:24;;;;;;;3.67;1.35;;;;;;;1.83;100.00;96041.69;5102020;28;24426;-73
2023/01/14 05:53:50;;;;;;;5.45;1.70;;;;;;;1.67;100.00;96044.63;5086529;27;24438;-74
2023/01/14 05:56:17;;;;;;;4.75;1.85;;;;;;;1.62;100.00;96045.59;5092239;28;24478;-74
2023/01/14 05:58:43;;;;;;;6.20;1.58;;;;;;;1.64;100.00;96044.69;5088827;28;24449;-74
2023/01/14 06:06:43;;;;;;;3.70;1.30;;;;;;;1.71;100.00;96027.53;5052986;28;24451;-72
2023/01/14 06:09:12;;;;;;;5.18;1.50;;;;;;;1.70;100.00;96029.22;5099504;28;24990;-74
2023/01/14 06:11:41;;;;;;;5.28;1.33;;;;;;;1.81;100.00;96034.06;5093632;28;24449;-73
2023/01/14 06:14:08;;;;;;;4.28;1.30;;;;;;;1.78;100.00;96030.75;5099710;28;25037;-73
2023/01/14 06:16:39;;;;;;;4.05;1.30;;;;;;;1.78;100.00;96033.28;5089434;28;24434;-74
2023/01/14 06:19:06;;;;;;;3.78;1.70;;;;;;;1.70;100.00;96026.66;5088900;28;24522;-74
2023/01/14 06:21:32;;;;;;;7.87;1.60;;;;;;;1.58;100.00;96032.06;5097820;28;25047;-74
2023/01/14 06:23:59;;;;;;;3.77;1.47;;;;;;;1.65;100.00;96025.94;5095279;28;24456;-73
2023/01/14 06:26:27;;;;;;;4.13;1.42;;;;;;;1.68;100.00;96019.94;5088881;28;24801;-74
2023/01/14 06:28:56;;;;;;;6.10;1.50;;;;;;;1.67;100.00;96014.00;5091863;28;24441;-74
2023/01/14 06:31:23;;;;;;;7.78;2.00;;;;;;;1.69;100.00;96011.38;5101334;28;24461;-73
2023/01/14 06:33:50;;;;;;;9.38;2.00;;;;;;;1.71;100.00;96017.31;5093422;28;24438;-72
2023/01/14 06:36:17;;;;;;;7.87;1.70;;;;;;;1.71;100.00;96014.75;5086505;28;24439;-73
2023/01/14 06:38:43;;;;;;;4.25;1.52;;;;;;;1.74;100.00;96014.66;5095787;28;25015;-73
2023/01/14 06:41:11;;;;;;;5.10;1.75;;;;;;;1.79;100.00;96010.28;5101704;28;24434;-74
2023/01/14 06:43:40;;;;;;;4.00;1.60;;;;;;;1.86;100.00;96005.88;5096006;28;24438;-71
2023/01/14 06:46:06;;;;;;;5.72;1.73;;;;;;;1.90;100.00;96015.97;5089373;28;24430;-74
2023/01/14 06:48:33;;;;;;;5.15;1.75;;;;;;;1.97;100.00;96021.78;5093440;28;24454;-74
2023/01/14 06:51:05;;;;;;;4.38;1.55;;;;;;;2.00;100.00;96014.00;5092122;28;24439;-74
2023/01/14 06:53:32;;;;;;;3.33;1.50;;;;;;;2.06;100.00;96018.97;5072687;28;24441;-74
2023/01/14 06:56:02;;;;;;;5.45;1.83;;;;;;;2.12;100.00;96012.88;5077800;28;24461;-74
2023/01/14 06:58:28;;;;;;;4.72;1.85;;;;;;;2.19;100.00;96009.28;5099275;28;24430;-73
2023/01/14 07:00:56;;;;;;;4.90;1.58;;;;;;;2.25;100.00;96010.84;5099612;28;24437;-74
2023/01/14 07:03:22;;;;;;;8.70;1.85;;;;;;;2.25;100.00;95995.50;5096829;28;24477;-74
2023/01/14 07:05:49;;;;;;;7.72;2.55;;;;;;;2.32;100.00;95985.06;5087424;28;24438;-75
2023/01/14 07:08:17;;;;;;;8.65;1.95;;;;;;;2.42;100.00;95980.56;5084763;28;24446;-75
2023/01/14 07:10:43;;;;;;;9.93;2.55;;;;;;;2.51;100.00;95982.84;5074046;28;24827;-74
2023/01/14 07:13:09;;;;;;;9.63;2.75;;;;;;;2.58;100.00;95974.13;5071291;28;25019;-74
2023/01/14 07:15:36;;;;;;;13.52;2.83;;;;;;;2.57;100.00;95969.91;5071325;28;24437;-74
2023/01/14 07:18:02;;;;;;;5.80;2.03;;;;;;;2.69;100.00;95965.31;5072855;28;24443;-72
2023/01/14 07:20:29;;;;;;;9.82;2.90;;;;;;;2.84;100.00;95957.19;5073040;28;24531;-74
2023/01/14 07:22:55;;;;;;;8.90;2.95;;;;;;;2.74;100.00;95956.63;5073995;28;24461;-74
2023/01/14 07:25:24;;;;;;;8.20;2.50;;;;;;;2.63;100.00;95953.53;5077048;28;24437;-74
2023/01/14 07:27:53;;;;;;;11.40;2.58;;;;;;;2.65;100.00;95936.44;5075518;28;24454;-72
2023/01/14 07:30:19;;;;;;;9.35;2.88;;;;;;;2.65;100.00;95934.72;5091787;28;24472;-74
2023/01/14 07:32:46;;;;;;;10.07;3.17;;;;;;;2.64;100.00;95930.50;5101197;28;24434;-74
2023/01/14 07:35:12;;;;;;;7.20;2.72;;;;;;;2.70;100.00;95931.19;5080946;28;24445;-74
2023/01/14 07:37:39;;;;;;;9.48;3.72;;;;;;;2.70;100.00;95926.06;5097922;28;24427;-74
2023/01/14 07:40:06;;;;;;;8.32;2.72;;;;;;;2.71;100.00;95931.16;5098581;28;24998;-74
2023/01/14 07:42:34;;;;;;;8.30;2.30;;;;;;;2.76;100.00;95931.00;5097394;28;24442;-74
2023/01/14 07:45:01;;;;;;;15.52;3.05;;;;;;;2.63;100.00;95928.81;5102188;28;24433;-74
2023/01/14 07:47:27;;;;;;;8.45;2.45;;;;;;;2.80;100.00;95923.19;5096242;28;24988;-74
2023/01/14 07:49:54;;;;;;;8.68;2.72;;;;;;;2.80;100.00;95923.19;5098796;28;24426;-74
2023/01/14 07:52:20;;;;;;;7.95;2.75;;;;;;;2.82;100.00;95918.06;5097375;28;24438;-74
2023/01/14 07:54:47;;;;;;;17.33;2.97;;;;;;;2.83;100.00;95912.88;5105154;28;24971;-74
2023/01/14 07:57:13;;;;;;;7.82;2.63;;;;;;;2.83;100.00;95914.59;5097152;28;24994;-73
2023/01/14 07:59:41;;;;;;;7.47;2.80;;;;;;;2.79;100.00;95918.97;5105030;28;24429;-74
2023/01/14 08:02:13;;;;;;;8.50;2.25;;;;;;;2.82;100.00;95918.06;5096846;28;24983;-73
2023/01/14 08:04:40;;;;;;;8.38;2.25;;;;;;;2.83;100.00;95918.00;5104204;28;24426;-73
2023/01/14 08:07:07;;;;;;;9.35;2.55;;;;;;;2.87;100.00;95906.78;5097171;28;24436;-74
2023/01/14 08:09:35;;;;;;;10.57;2.80;;;;;;;2.95;100.00;95910.81;5094828;28;24658;-74
2023/01/14 08:12:02;;;;;;;12.60;2.53;;;;;;;3.04;100.00;95911.41;5097036;28;24544;-73
2023/01/14 08:14:28;;;;;;;16.30;2.77;;;;;;;3.10;100.00;95905.22;5100473;28;24469;-74
2023/01/14 08:16:56;;;;;;;6.53;2.60;;;;;;;3.12;100.00;95903.47;5094830;28;24520;-74
2023/01/14 08:19:23;;;;;;;9.85;2.78;;;;;;;3.17;100.00;95906.72;5096285;28;25020;-73
2023/01/14 08:21:49;;;;;;;8.25;2.40;;;;;;;3.13;100.00;95903.41;5096995;28;24796;-74
2023/01/14 08:24:15;;;;;;;5.75;1.83;;;;;;;3.21;100.00;95897.22;5100654;28;24776;-74
2023/01/14 08:26:42;;;;;;;6.72;2.03;;;;;;;3.25;100.00;95891.94;5088697;28;24434;-74
2023/01/14 08:29:08;;;;;;;7.85;2.80;;;;;;;3.38;100.00;95895.81;5075268;28;24454;-73
2023/01/14 08:31:35;;;;;;;10.52;2.15;;;;;;;3.36;100.00;95889.88;5079002;28;24437;-73
2023/01/14 08:34:03;;;;;;;8.13;2.50;;;;;;;3.43;100.00;95887.97;5105473;28;24426;-74
2023/01/14 08:36:29;;;;;;;13.63;3.00;;;;;;;3.59;100.00;95896.78;5099085;28;24987;-74
2023/01/14 08:38:55;;;;;;;12.80;2.60;;;;;;;3.65;100.00;95895.78;5092367;28;24429;-74
2023/01/14 08:41:22;;;;;;;7.95;2.50;;;;;;;3.72;100.00;95899.81;5092601;28;24430;-74
2023/01/14 08:43:51;;;;;;;6.67;2.13;;;;;;;3.77;100.00;95897.91;5091028;28;24902;-73
2023/01/14 08:46:19;;;;;;;11.00;2.45;;;;;;;3.81;100.00;95898.63;5095863;28;24495;-74
2023/01/14 08:48:45;;;;;;;8.02;2.60;;;;;;;3.77;100.00;95892.78;5087056;28;24785;-73
2023/01/14 08:51:13;;;;;;;8.45;2.47;;;;;;;3.77;100.00;95885.09;5081626;28;24512;-74
2023/01/14 08:53:41;;;;;;;10.43;2.53;;;;;;;3.77;100.00;95885.09;5091441;28;24446;-74
2023/01/14 08:56:11;;;;;;;8.57;2.38;;;;;;;3.79;100.00;95882.50;5091025;28;24492;-73
2023/01/14 08:58:37;;;;;;;5.93;2.15;;;;;;;3.80;100.00;95872.19;5084482;28;24435;-74
2023/01/14 09:01:06;;;;;;;9.02;2.75;;;;;;;3.80;100.00;95851.69;5083450;28;24436;-74
2023/01/14 09:03:35;;;;;;;7.80;2.42;;;;;;;3.89;100.00;95858.22;5100943;28;24445;-74
2023/01/14 09:06:03;;;;;;;5.70;2.13;;;;;;;4.04;100.00;95861.97;5097526;28;24437;-72
2023/01/14 09:19:30;;;;;;;6.65;2.30;;;;;;;4.36;100.00;95850.53;5087939;28;24491;-74
2023/01/14 09:21:56;;;;;;;10.75;2.35;;;;;;;4.43;100.00;95846.88;5101100;28;24472;-74
2023/01/14 09:24:24;;;;;;;6.95;1.90;;;;;;;4.63;100.00;95840.97;5097907;28;24994;-73
2023/01/14 09:26:50;;;;;;;9.98;3.47;;;;;;;4.56;100.00;95842.97;5100064;28;24445;-73
2023/01/14 09:29:17;;;;;;;11.43;2.17;;;;;;;4.61;100.00;95843.59;5092486;28;24449;-73
2023/01/14 09:31:43;;;;;;;5.38;1.92;;;;;;;4.66;100.00;95840.03;5093004;28;24438;-72
2023/01/14 09:34:10;;;;;;;4.90;1.65;;;;;;;4.76;100.00;95834.47;5081623;28;24434;-72
2023/01/14 09:36:36;;;;;;;6.70;1.73;;;;;;;4.82;100.00;95826.56;5098158;28;24434;-72
2023/01/14 09:39:03;;;;;;;4.05;1.58;;;;;;;4.84;100.00;95826.47;5101623;28;24437;-74
2023/01/14 09:41:34;;;;;;;4.35;1.45;;;;;;;4.88;100.00;95822.06;5086200;28;24971;-74
2023/01/14 09:44:03;;;;;;;5.13;1.43;;;;;;;4.91;100.00;95820.22;5101746;28;24429;-74
2023/01/14 09:46:30;;;;;;;6.28;1.80;;;;;;;4.97;100.00;95832.81;5100550;28;24495;-73
2023/01/14 09:49:00;;;;;;;6.13;2.28;;;;;;;4.99;100.00;95837.88;5087201;28;24446;-74
2023/01/14 09:51:45;;;;;;;7.10;1.83;;;;;;;5.04;100.00;95834.25;5102390;27;24993;-74
2023/01/14 09:54:20;;;;;;;5.85;3.63;;;;;;;5.03;100.00;95831.72;5082240;28;24432;-74
2023/01/14 09:56:54;;;;;;;7.97;1.85;;;;;;;5.13;100.00;95837.34;5099163;28;24805;-74
2023/01/14 09:59:30;;;;;;;6.97;3.75;;;;;;;5.10;100.00;95828.84;5102716;28;24432;-74
2023/01/14 10:02:02;;;;;;;7.35;3.45;;;;;;;5.14;100.00;95829.56;5100709;28;24442;-74
2023/01/14 10:04:54;;;;;;;9.20;5.70;;;;;;;5.15;100.00;95823.50;5102152;28;24441;-74
2023/01/14 10:07:22;;;;;;;7.90;3.83;;;;;;;5.15;100.00;95814.97;5089948;28;24430;-74
2023/01/14 10:09:51;;;;;;;4.75;2.20;;;;;;;5.17;100.00;95770.38;5100640;28;24457;-74
2023/01/14 10:12:23;;;;;;;4.68;1.77;;;;;;;5.23;100.00;95754.75;5102298;28;24792;-73
2023/01/14 10:14:57;;;;;;;9.73;2.20;;;;;;;5.33;100.00;95742.31;5098282;28;24755;-74
2023/01/14 10:17:28;;;;;;;4.28;2.03;;;;;;;5.37;100.00;95740.47;5102507;28;24422;-73
2023/01/14 10:19:54;;;;;;;4.60;2.17;;;;;;;5.42;100.00;95734.25;5097427;28;20773;-74
2023/01/14 10:22:31;;;;;;;8.98;2.88;;;;;;;5.52;100.00;95732.09;5102195;28;24441;-74
2023/01/14 10:24:58;;;;;;;3.33;1.15;;;;;;;5.64;100.00;95741.84;5096957;28;24441;-74
2023/01/14 10:27:31;;;;;;;4.53;2.35;;;;;;;5.76;100.00;95736.16;5101983;28;24437;-74
2023/01/14 10:30:13;;;;;;;5.90;2.60;;;;;;;5.77;100.00;95735.25;5096465;28;24526;-75
2023/01/14 10:32:40;;;;;;;5.45;1.55;;;;;;;5.81;100.00;95718.78;5101676;28;24792;-75
2023/01/14 10:35:12;;;;;;;8.38;1.98;;;;;;;5.80;100.00;95721.44;5101807;28;24444;-74
2023/01/14 10:37:39;;;;;;;7.05;3.00;;;;;;;5.83;100.00;95713.59;5100763;28;24438;-75
2023/01/14 10:40:15;;;;;;;3.13;1.42;;;;;;;5.94;100.00;95710.59;5087363;28;24433;-74
2023/01/14 10:42:43;;;;;;;5.47;1.37;;;;;;;6.03;100.00;95703.25;5100724;28;24469;-75
2023/01/14 10:45:12;;;;;;;2.72;1.17;;;;;;;6.16;100.00;95687.28;5101870;28;24437;-74
2023/01/14 10:47:40;;;;;;;2.05;0.90;;;;;;;6.23;100.00;95681.78;5099597;28;24433;-72
2023/01/14 10:50:18;;;;;;;3.33;1.20;;;;;;;6.20;100.00;95681.94;5101858;28;24434;-73
2023/01/14 10:52:45;;;;;;;3.53;1.20;;;;;;;6.25;100.00;95673.97;5098640;28;24465;-73
2023/01/14 10:55:15;;;;;;;3.13;0.98;;;;;;;6.31;100.00;95668.56;5101900;28;24437;-74
2023/01/14 10:57:49;;;;;;;2.30;1.00;;;;;;;6.39;100.00;95663.06;5098525;28;24462;-74
2023/01/14 11:00:34;;;;;;;2.00;0.90;;;;;;;6.38;100.00;95646.78;5101863;28;21344;-74
2023/01/14 11:03:02;;;;;;;3.80;0.85;;;;;;;6.44;100.00;95646.47;5099888;28;24445;-74
2023/01/14 11:05:32;;;;;;;4.32;0.77;;;;;;;6.47;100.00;95642.94;5102006;28;24445;-74
2023/01/14 11:08:02;;;;;;;1.05;0.60;;;;;;;6.51;100.00;95639.28;5098388;28;21256;-74
2023/01/14 11:10:31;;;;;;;2.65;0.80;;;;;;;6.64;100.00;95647.25;5101918;28;24437;-74
2023/01/14 11:13:23;;;;;;;2.95;0.68;;;;;;;6.68;100.00;95643.63;5098447;28;20772;-74
2023/01/14 11:15:50;;;;;;;3.00;0.80;;;;;;;6.70;100.00;95636.66;5099639;28;20771;-74
2023/01/14 11:18:23;;;;;;;3.22;0.95;;;;;;;6.72;100.00;95634.84;5100527;28;24437;-75
2023/01/14 11:20:54;;;;;;;0.80;0.40;;;;;;;6.70;100.00;95631.50;5099991;28;20720;-74
2023/01/14 11:23:28;;;;;;;1.85;0.70;;;;;;;6.65;100.00;95624.00;5100338;28;20773;-74
2023/01/14 11:25:55;;;;;;;1.65;0.60;;;;;;;6.77;100.00;95623.38;5099090;28;20734;-75
2023/01/14 11:28:23;;;;;;;2.13;0.60;;;;;;;6.86;100.00;95627.25;5099269;28;24457;-74
2023/01/14 11:30:53;;;;;;;1.52;0.70;;;;;;;6.83;100.00;95611.13;5099751;28;20762;-75
2023/01/14 11:33:22;;;;;;;4.13;1.88;;;;;;;6.71;100.00;95608.28;5099361;28;20808;-74
2023/01/14 11:35:52;;;;;;;3.75;1.00;;;;;;;6.83;100.00;95604.25;5099710;28;24974;-74
2023/01/14 11:38:21;;;;;;;1.98;0.90;;;;;;;6.84;100.00;95594.78;5098783;28;24474;-74
2023/01/14 11:43:52;;;;;;;3.50;1.00;;;;;;;6.83;100.00;95581.09;5089269;28;24438;-74
2023/01/14 11:46:19;;;;;;;2.08;0.85;;;;;;;6.87;100.00;95572.28;5094067;28;20673;-73
2023/01/14 11:48:59;;;;;;;2.37;1.47;;;;;;;6.79;100.00;95570.09;5102322;28;20789;-73
2023/01/14 11:51:27;;;;;;;3.22;1.20;;;;;;;6.80;100.00;95560.63;5096458;28;20690;-73
2023/01/14 11:53:55;;;;;;;1.80;1.02;;;;;;;6.89;100.00;95554.19;5104621;28;20850;-73
2023/01/14 11:56:28;;;;;;;3.42;1.33;;;;;;;6.93;100.00;95547.94;5107142;28;20799;-73
2023/01/14 11:58:56;;;;;;;3.75;1.67;;;;;;;6.86;100.00;95549.19;5102836;28;20739;-73
2023/01/14 12:01:27;;;;;;;5.50;1.90;;;;;;;6.87;100.00;95538.81;5100846;28;20819;-73
2023/01/14 12:04:03;;;;;;;3.83;1.63;;;;;;;6.92;100.00;95536.00;5103114;28;20847;-73
2023/01/14 12:06:34;;;;;;;2.73;1.13;;;;;;;6.85;100.00;95530.34;5100363;28;20670;-73